Time;durP1;ratioP1;P1;durP2;ratioP2;P2;SDS_P1;SDS_P2;PMS_P1;PMS_P2;Temp;Humidity;BMP_temperature;BMP_pressure;BME280_temperature;BME280_humidity;BME280_pressure;Samples;Min_cycle;Max_cycle;Signal;HPM_P1;HPM_P2
2022/06/16 00:01:12;;;;;;;6.47;5.40;;;;;;;15.40;100.00;99524.72;4906929;29;20198;-92
2022/06/16 00:03:39;;;;;;;6.20;5.60;;;;;;;15.41;100.00;99520.16;4891333;29;20253;-86
2022/06/16 00:06:06;;;;;;;6.43;5.77;;;;;;;15.36;100.00;99512.00;4902227;29;20199;-93
2022/06/16 00:08:33;;;;;;;6.20;5.70;;;;;;;15.35;100.00;99513.88;4904048;29;20210;-94
2022/06/16 00:11:19;;;;;;;6.30;5.60;;;;;;;15.29;100.00;99506.81;4860598;29;20317;-92
2022/06/16 00:13:47;;;;;;;5.87;5.27;;;;;;;15.26;100.00;99512.69;4899248;29;20245;-92
2022/06/16 00:16:15;;;;;;;7.83;5.53;;;;;;;15.22;100.00;99519.66;4905256;29;20521;-92
2022/06/16 00:18:42;;;;;;;6.20;5.60;;;;;;;15.24;100.00;99516.72;4893441;29;20190;-90
2022/06/16 00:21:09;;;;;;;6.10;5.60;;;;;;;15.21;100.00;99514.53;4887973;29;20280;-90
2022/06/16 00:23:36;;;;;;;7.40;5.77;;;;;;;15.20;100.00;99516.44;4887738;29;20199;-91
2022/06/16 00:26:12;;;;;;;6.90;6.20;;;;;;;15.17;100.00;99511.50;4888038;29;20203;-91
2022/06/16 00:28:43;;;;;;;6.80;6.20;;;;;;;15.14;100.00;99501.22;4903705;29;20183;-92
2022/06/16 00:31:11;;;;;;;6.73;5.97;;;;;;;15.11;100.00;99499.06;4888265;29;20526;-91
2022/06/16 00:33:38;;;;;;;6.83;5.80;;;;;;;15.11;100.00;99504.44;4887713;29;20278;-92
2022/06/16 00:36:05;;;;;;;6.77;6.13;;;;;;;15.13;100.00;99509.56;4887489;29;20246;-92
2022/06/16 00:38:32;;;;;;;7.70;5.90;;;;;;;15.12;100.00;99502.53;4887795;29;20190;-92
2022/06/16 00:40:59;;;;;;;6.60;6.00;;;;;;;15.06;100.00;99496.28;4871441;29;20584;-90
2022/06/16 00:43:27;;;;;;;6.20;5.60;;;;;;;15.07;100.00;99502.50;4887503;29;20214;-89
2022/06/16 00:45:59;;;;;;;6.20;5.60;;;;;;;15.00;100.00;99497.28;4903879;29;20257;-92
2022/06/16 00:48:42;;;;;;;6.67;6.17;;;;;;;14.96;100.00;99494.28;4906417;29;20598;-93
2022/06/16 00:51:14;;;;;;;6.60;6.03;;;;;;;14.93;100.00;99496.69;4906113;29;20213;-89
2022/06/16 00:53:41;;;;;;;7.17;6.60;;;;;;;14.92;100.00;99497.72;4906011;29;20198;-89
2022/06/16 00:56:11;;;;;;;7.07;6.30;;;;;;;14.89;100.00;99490.13;4906012;29;20253;-92
2022/06/16 00:58:40;;;;;;;6.60;6.10;;;;;;;14.85;100.00;99489.00;4890625;29;20602;-90
2022/06/16 01:01:08;;;;;;;7.90;6.70;;;;;;;14.84;100.00;99488.19;4906085;29;20234;-89
2022/06/16 01:06:23;;;;;;;9.23;6.67;;;;;;;14.81;100.00;99479.78;4889359;29;20253;-92
2022/06/16 01:08:58;;;;;;;6.60;6.10;;;;;;;14.78;100.00;99480.28;4871856;29;20469;-87
2022/06/16 01:15:00;;;;;;;6.97;6.30;;;;;;;14.68;100.00;99482.84;4899059;29;20202;-91
2022/06/16 01:17:43;;;;;;;7.57;6.90;;;;;;;14.63;100.00;99475.50;4886825;29;20285;-92
2022/06/16 01:20:29;;;;;;;7.20;6.60;;;;;;;14.60;100.00;99483.28;4886946;29;20250;-92
2022/06/16 01:23:10;;;;;;;7.33;6.63;;;;;;;14.52;100.00;99474.56;4902464;29;20195;-89
2022/06/16 01:25:49;;;;;;;9.20;6.80;;;;;;;14.49;100.00;99479.63;4902482;29;20285;-95
2022/06/16 01:28:21;;;;;;;7.90;7.20;;;;;;;14.43;100.00;99472.53;4902071;29;20206;-93
2022/06/16 01:31:10;;;;;;;7.43;6.70;;;;;;;14.39;100.00;99471.41;4887238;29;20198;-92
2022/06/16 01:33:50;;;;;;;8.13;7.43;;;;;;;14.29;100.00;99474.72;4902158;29;20519;-91
2022/06/16 01:36:48;;;;;;;7.83;7.13;;;;;;;14.27;100.00;99478.75;4902738;29;20276;-94
2022/06/16 01:39:32;;;;;;;10.00;7.17;;;;;;;14.22;100.00;99481.38;4885424;29;20558;-94
2022/06/16 01:42:13;;;;;;;8.33;7.30;;;;;;;14.18;100.00;99477.53;4886551;29;20273;-94
2022/06/16 01:44:46;;;;;;;7.77;7.07;;;;;;;14.13;100.00;99483.66;4908638;29;20678;-90
2022/06/16 01:47:17;;;;;;;8.33;7.63;;;;;;;14.13;100.00;99496.31;4905248;29;20197;-93
2022/06/16 01:49:53;;;;;;;8.10;7.47;;;;;;;14.10;100.00;99492.22;4896506;29;20860;-90
2022/06/16 01:52:27;;;;;;;8.50;7.63;;;;;;;14.08;100.00;99492.47;4904040;29;20214;-94
2022/06/16 01:54:59;;;;;;;8.93;8.10;;;;;;;14.04;100.00;99483.22;4905203;29;20193;-94
2022/06/16 01:57:39;;;;;;;7.73;7.13;;;;;;;14.05;100.00;99479.47;4905061;29;20193;-95
2022/06/16 02:00:10;;;;;;;8.13;7.43;;;;;;;14.02;100.00;99474.59;4890909;29;20498;-93
2022/06/16 02:02:59;;;;;;;8.80;8.00;;;;;;;13.99;100.00;99477.78;4883351;29;20248;-89
2022/06/16 02:05:32;;;;;;;8.50;7.70;;;;;;;13.99;100.00;99477.78;4898850;29;20175;-95
2022/06/16 02:08:15;;;;;;;8.43;7.63;;;;;;;13.95;100.00;99476.63;4867613;29;20202;-95
2022/06/16 02:10:53;;;;;;;9.40;8.43;;;;;;;13.95;100.00;99473.16;4854481;29;20217;-89
2022/06/16 02:13:25;;;;;;;8.07;7.37;;;;;;;13.93;100.00;99473.38;4867099;29;20271;-94
2022/06/16 02:16:00;;;;;;;8.40;7.70;;;;;;;13.87;100.00;99471.66;4867837;29;20231;-92
2022/06/16 02:18:30;;;;;;;8.07;7.37;;;;;;;13.86;100.00;99470.00;4869479;29;20206;-91
2022/06/16 02:21:28;;;;;;;8.43;7.63;;;;;;;13.86;100.00;99471.88;4871278;29;20183;-90
2022/06/16 02:23:59;;;;;;;8.20;7.40;;;;;;;13.79;100.00;99480.16;4890406;29;20215;-92
2022/06/16 02:26:38;;;;;;;8.30;7.53;;;;;;;13.76;100.00;99483.34;4873763;29;20198;-91
2022/06/16 02:29:32;;;;;;;8.70;7.90;;;;;;;13.75;100.00;99480.88;4892395;29;20190;-88
2022/06/16 02:32:57;;;;;;;8.20;7.40;;;;;;;13.75;100.00;99488.94;4898083;29;20223;-90
2022/06/16 02:36:15;;;;;;;8.10;7.40;;;;;;;13.70;100.00;99486.16;4914376;29;20212;-86
2022/06/16 02:39:17;;;;;;;8.20;7.57;;;;;;;13.64;100.00;99482.56;4875994;29;20229;-89
2022/06/16 02:42:17;;;;;;;8.53;7.77;;;;;;;13.65;100.00;99487.72;4875865;29;20239;-82
2022/06/16 02:45:08;;;;;;;9.07;8.20;;;;;;;13.60;100.00;99484.94;4868047;29;20186;-82
2022/06/16 02:48:03;;;;;;;8.67;7.80;;;;;;;13.57;100.00;99481.91;4879398;29;20330;-82
2022/06/16 02:51:03;;;;;;;8.33;7.60;;;;;;;13.55;100.00;99473.25;4910744;29;20663;-82
2022/06/16 02:53:42;;;;;;;8.03;7.27;;;;;;;13.53;100.00;99472.69;4894680;29;20210;-82
2022/06/16 02:56:23;;;;;;;8.33;7.63;;;;;;;13.54;100.00;99475.13;4882011;29;20211;-82
2022/06/16 02:58:50;;;;;;;8.37;7.67;;;;;;;13.53;100.00;99478.09;4860617;29;20225;-81
2022/06/16 03:01:18;;;;;;;9.10;8.40;;;;;;;13.52;100.00;99477.25;4891875;29;20328;-82
2022/06/16 03:04:04;;;;;;;8.90;8.10;;;;;;;13.48;100.00;99476.13;4861918;29;20292;-83
2022/06/16 03:06:32;;;;;;;8.53;7.87;;;;;;;13.51;100.00;99488.25;4888710;29;20197;-83
2022/06/16 03:08:59;;;;;;;8.60;7.70;;;;;;;13.49;100.00;99484.97;4881142;29;20679;-81
2022/06/16 03:11:29;;;;;;;8.60;7.80;;;;;;;13.50;100.00;99489.31;4864400;29;20225;-82
2022/06/16 03:13:58;;;;;;;9.40;8.43;;;;;;;13.51;100.00;99488.25;4863722;29;20637;-82
2022/06/16 03:16:31;;;;;;;8.47;7.77;;;;;;;13.53;100.00;99495.03;4864096;29;20233;-82
2022/06/16 03:18:58;;;;;;;8.47;7.77;;;;;;;13.55;100.00;99489.41;4863695;29;20201;-82
2022/06/16 03:21:28;;;;;;;9.03;8.13;;;;;;;13.57;100.00;99496.19;4864349;29;20215;-82
2022/06/16 03:23:55;;;;;;;8.80;8.00;;;;;;;13.60;100.00;99492.19;4863924;29;20262;-82
2022/06/16 03:26:22;;;;;;;8.77;7.97;;;;;;;13.66;100.00;99492.06;4864099;29;20198;-81
2022/06/16 03:28:53;;;;;;;8.60;7.90;;;;;;;13.69;100.00;99488.03;4894923;29;20254;-81
2022/06/16 03:31:20;;;;;;;9.33;8.57;;;;;;;13.75;100.00;99491.66;4880356;29;20211;-82
2022/06/16 03:33:49;;;;;;;9.43;8.63;;;;;;;13.82;100.00;99492.28;4871760;29;20227;-82
2022/06/16 03:36:17;;;;;;;10.13;9.13;;;;;;;13.84;100.00;99493.69;4899840;29;20194;-82
2022/06/16 03:38:45;;;;;;;9.77;8.70;;;;;;;13.92;100.00;99503.22;4882476;29;20206;-82
2022/06/16 03:41:14;;;;;;;9.73;8.80;;;;;;;13.97;100.00;99497.94;4882114;29;20270;-83
2022/06/16 03:43:42;;;;;;;10.10;9.20;;;;;;;14.06;100.00;99494.59;4882698;29;20277;-82
2022/06/16 03:46:15;;;;;;;10.37;9.40;;;;;;;14.14;100.00;99497.94;4900835;29;20289;-83
2022/06/16 03:48:51;;;;;;;10.50;9.50;;;;;;;14.25;100.00;99497.03;4900927;29;20194;-83
2022/06/16 03:51:28;;;;;;;10.37;9.57;;;;;;;14.32;100.00;99498.50;4888122;29;20245;-83
2022/06/16 03:53:55;;;;;;;9.77;8.97;;;;;;;14.42;100.00;99492.44;4899289;29;20184;-84
2022/06/16 03:56:23;;;;;;;9.97;9.10;;;;;;;14.51;100.00;99491.78;4882395;29;20207;-84
2022/06/16 03:58:54;;;;;;;11.00;9.83;;;;;;;14.63;100.00;99491.69;4882942;29;20194;-83
2022/06/16 04:01:22;;;;;;;11.67;10.57;;;;;;;14.75;100.00;99492.38;4867254;29;20194;-84
2022/06/16 04:04:01;;;;;;;11.33;10.23;;;;;;;15.08;100.00;99490.63;4882123;29;20199;-84
2022/06/16 04:06:47;;;;;;;11.03;10.07;;;;;;;15.81;100.00;99498.19;4879596;29;20389;-83
2022/06/16 04:09:17;;;;;;;10.30;9.40;;;;;;;16.67;100.00;99493.41;4863138;29;20226;-84
2022/06/16 04:11:45;;;;;;;10.67;9.70;;;;;;;17.48;100.00;99494.53;4879740;29;20224;-82
2022/06/16 04:14:13;;;;;;;9.70;8.80;;;;;;;18.21;100.00;99492.44;4881002;29;20242;-84
2022/06/16 04:16:52;;;;;;;10.27;8.70;;;;;;;18.79;100.00;99482.88;4901078;29;20210;-84
2022/06/16 04:19:28;;;;;;;8.87;8.07;;;;;;;19.35;100.00;99480.72;4901771;29;20205;-86
2022/06/16 04:21:56;;;;;;;8.93;8.13;;;;;;;19.93;100.00;99474.63;4902032;29;20666;-83
2022/06/16 04:24:49;;;;;;;8.97;8.17;;;;;;;20.76;100.00;99485.28;4916160;29;20202;-85
2022/06/16 04:27:15;;;;;;;8.60;7.83;;;;;;;21.70;100.00;99478.03;4901361;29;20647;-87
2022/06/16 04:29:42;;;;;;;8.90;8.13;;;;;;;22.59;100.00;99498.66;4900574;29;20191;-84
2022/06/16 04:32:13;;;;;;;9.47;8.60;;;;;;;23.42;92.30;99510.41;4900378;29;20220;-84
2022/06/16 04:34:46;;;;;;;7.93;7.33;;;;;;;24.14;83.46;99470.97;4900184;29;20643;-84
2022/06/16 04:37:13;;;;;;;7.97;7.37;;;;;;;24.51;79.72;99466.19;4900520;29;20581;-86
2022/06/16 04:39:42;;;;;;;8.57;7.87;;;;;;;24.30;77.86;99462.38;4900261;29;20194;-85
2022/06/16 04:42:09;;;;;;;8.63;7.93;;;;;;;23.32;84.56;99464.16;4900208;29;20611;-85
2022/06/16 04:44:39;;;;;;;8.47;7.70;;;;;;;22.50;93.87;99473.16;4894002;29;20286;-85
2022/06/16 04:47:06;;;;;;;8.33;7.63;;;;;;;21.77;100.00;99475.75;4881413;29;20199;-85
2022/06/16 04:49:34;;;;;;;9.10;8.40;;;;;;;21.26;100.00;99467.53;4881509;29;20214;-84
2022/06/16 04:52:01;;;;;;;8.47;7.73;;;;;;;20.94;100.00;99471.72;4881077;29;20644;-84
2022/06/16 04:54:30;;;;;;;8.83;8.03;;;;;;;20.71;100.00;99466.28;4881401;29;20196;-84
2022/06/16 04:57:08;;;;;;;8.60;7.90;;;;;;;20.41;100.00;99470.13;4881264;29;20223;-84
2022/06/16 04:59:53;;;;;;;8.67;7.90;;;;;;;20.29;100.00;99467.78;4898282;29;20221;-84
2022/06/16 05:02:47;;;;;;;8.37;7.57;;;;;;;20.27;100.00;99456.38;4881656;29;20200;-82
2022/06/16 05:05:35;;;;;;;8.80;8.10;;;;;;;20.27;100.00;99466.44;4898219;29;20178;-84
2022/06/16 05:08:19;;;;;;;10.60;9.60;;;;;;;20.36;100.00;99464.75;4881193;29;20209;-83
2022/06/16 05:11:05;;;;;;;9.03;8.23;;;;;;;20.43;100.00;99468.78;4884208;29;20197;-85
2022/06/16 05:13:37;;;;;;;8.97;8.27;;;;;;;20.49;100.00;99474.94;4885650;29;20252;-84
2022/06/16 05:16:23;;;;;;;8.63;7.93;;;;;;;20.57;100.00;99477.88;4900324;29;20213;-85
2022/06/16 05:19:30;;;;;;;8.57;7.87;;;;;;;20.70;100.00;99470.09;4905208;29;20199;-84
2022/06/16 05:22:16;;;;;;;9.60;8.70;;;;;;;20.80;100.00;99478.97;4917052;29;20600;-87
2022/06/16 05:25:03;;;;;;;9.00;8.30;;;;;;;20.92;100.00;99471.19;4852436;29;20206;-84
2022/06/16 05:27:59;;;;;;;9.03;8.10;;;;;;;21.00;100.00;99472.44;4908978;29;20202;-85
2022/06/16 05:30:40;;;;;;;9.27;8.43;;;;;;;21.10;100.00;99473.13;4899966;29;20209;-85
2022/06/16 05:33:40;;;;;;;8.97;8.27;;;;;;;21.24;100.00;99464.28;4884641;29;20224;-84
2022/06/16 05:36:26;;;;;;;9.03;8.17;;;;;;;21.41;100.00;99467.31;4916263;29;20206;-85
2022/06/16 05:39:11;;;;;;;8.43;7.73;;;;;;;21.58;100.00;99469.50;4886457;29;20198;-84
2022/06/16 05:41:56;;;;;;;8.87;8.17;;;;;;;21.70;100.00;99467.13;4916760;29;20606;-83
2022/06/16 05:44:36;;;;;;;8.67;7.97;;;;;;;21.85;100.00;99450.53;4912159;29;20188;-84
2022/06/16 05:47:21;;;;;;;8.80;8.07;;;;;;;22.06;100.00;99461.97;4882855;29;20655;-84
2022/06/16 05:49:51;;;;;;;9.53;8.70;;;;;;;22.16;100.00;99451.66;4880587;29;20199;-85
2022/06/16 05:52:20;;;;;;;9.77;8.97;;;;;;;22.33;100.00;99462.84;4880634;29;20248;-84
2022/06/16 05:55:05;;;;;;;9.57;8.70;;;;;;;22.47;100.00;99453.84;4867517;29;20634;-84
2022/06/16 05:57:32;;;;;;;8.63;8.00;;;;;;;22.59;100.00;99465.88;4880993;29;20191;-83
2022/06/16 05:59:59;;;;;;;8.50;7.73;;;;;;;22.64;100.00;99468.53;4864660;29;20258;-83
2022/06/16 06:02:26;;;;;;;7.80;7.10;;;;;;;22.74;100.00;99464.81;4880583;29;20191;-84
2022/06/16 06:04:58;;;;;;;8.30;7.50;;;;;;;22.85;100.00;99466.25;4865681;29;20734;-84
2022/06/16 06:07:25;;;;;;;8.70;7.90;;;;;;;22.94;100.00;99463.59;4861883;29;20200;-83
2022/06/16 06:18:20;;;;;;;8.20;7.50;;;;;;;23.31;100.00;99471.56;4861598;29;20248;-84
2022/06/16 06:20:47;;;;;;;7.53;6.85;;;;;;;23.54;100.00;99465.03;4862007;29;20197;-85
2022/06/16 06:23:14;;;;;;;7.15;6.55;;;;;;;23.59;100.00;99477.78;4861807;29;20251;-84
2022/06/16 06:25:41;;;;;;;7.50;6.90;;;;;;;23.78;100.00;99480.34;4861684;29;20197;-85
2022/06/16 06:28:11;;;;;;;7.50;6.90;;;;;;;23.86;100.00;99483.16;4877957;29;20239;-83
2022/06/16 06:30:39;;;;;;;8.05;7.25;;;;;;;23.96;99.35;99482.91;4846482;29;20199;-84
2022/06/16 06:33:06;;;;;;;9.32;7.30;;;;;;;24.16;97.27;99480.78;4861418;29;20247;-84
2022/06/16 06:35:33;;;;;;;7.50;6.68;;;;;;;24.12;99.01;99475.91;4846858;29;20207;-85
2022/06/16 06:38:00;;;;;;;7.20;6.60;;;;;;;24.32;94.54;99473.81;4846736;29;20256;-84
2022/06/16 06:40:30;;;;;;;7.38;6.75;;;;;;;24.36;95.36;99469.31;4856741;29;20243;-83
2022/06/16 06:42:57;;;;;;;7.35;6.70;;;;;;;24.43;97.50;99470.50;4900690;29;20267;-83
2022/06/16 06:45:26;;;;;;;7.18;6.50;;;;;;;24.51;95.34;99466.19;4895855;29;20556;-83
2022/06/16 06:47:53;;;;;;;6.95;6.30;;;;;;;24.61;94.45;99452.22;4919590;29;20703;-83
2022/06/16 06:50:30;;;;;;;7.05;6.35;;;;;;;24.77;95.10;99449.88;4919002;29;20253;-83
2022/06/16 06:52:57;;;;;;;6.93;6.22;;;;;;;24.88;95.29;99454.75;4901782;29;20218;-83
2022/06/16 06:55:24;;;;;;;6.78;6.22;;;;;;;24.92;94.22;99463.97;4900161;29;20623;-83
2022/06/16 06:57:52;;;;;;;7.40;6.18;;;;;;;24.99;91.37;99461.56;4900367;29;20664;-85
2022/06/16 07:00:21;;;;;;;6.82;5.90;;;;;;;25.01;91.32;99472.19;4883415;29;20255;-83
2022/06/16 07:02:48;;;;;;;6.93;6.18;;;;;;;24.74;96.45;99462.25;4883543;29;20201;-83
2022/06/16 07:05:15;;;;;;;6.55;5.82;;;;;;;24.90;93.84;99460.75;4883390;29;20229;-83
2022/06/16 07:07:45;;;;;;;5.95;5.43;;;;;;;25.05;94.26;99464.16;4882793;29;20567;-84
2022/06/16 07:10:13;;;;;;;5.70;5.20;;;;;;;25.16;93.83;99466.28;4864806;29;20270;-84
2022/06/16 07:12:40;;;;;;;5.55;4.70;;;;;;;25.32;94.08;99459.22;4880221;29;20774;-84
2022/06/16 07:15:08;;;;;;;6.82;5.15;;;;;;;25.51;91.46;99452.63;4896558;29;20235;-83
2022/06/16 07:17:34;;;;;;;5.40;4.90;;;;;;;25.72;87.47;99459.09;4902010;29;20231;-83
2022/06/16 07:20:01;;;;;;;5.30;4.80;;;;;;;25.92;83.33;99461.19;4904113;29;20226;-83
2022/06/16 07:22:29;;;;;;;4.82;4.35;;;;;;;25.88;80.87;99452.00;4864497;29;20239;-83
2022/06/16 07:24:56;;;;;;;5.90;4.88;;;;;;;25.89;82.64;99453.59;4864051;29;20202;-82
2022/06/16 07:27:23;;;;;;;5.43;4.93;;;;;;;25.97;80.64;99449.22;4881120;29;20268;-83
2022/06/16 07:29:50;;;;;;;5.20;4.43;;;;;;;26.04;83.04;99435.81;4880776;29;20221;-83
2022/06/16 07:32:19;;;;;;;5.28;4.47;;;;;;;26.19;84.83;99443.53;4864019;29;20309;-84
2022/06/16 07:34:46;;;;;;;5.07;4.57;;;;;;;26.36;80.33;99448.22;4864012;29;20208;-83
2022/06/16 07:37:13;;;;;;;4.93;4.50;;;;;;;26.30;79.68;99455.81;4891951;29;20202;-83
2022/06/16 07:39:41;;;;;;;4.72;4.05;;;;;;;26.52;82.64;99446.53;4882461;29;20576;-84
2022/06/16 07:42:08;;;;;;;4.43;4.03;;;;;;;26.77;77.39;99447.56;4867349;29;20242;-83
2022/06/16 07:44:36;;;;;;;5.03;4.43;;;;;;;26.94;74.34;99451.03;4873336;29;20194;-82
2022/06/16 07:47:04;;;;;;;5.57;4.70;;;;;;;27.04;73.17;99441.59;4869731;29;20198;-84
2022/06/16 07:49:32;;;;;;;7.95;4.78;;;;;;;27.20;73.90;99447.34;4882110;29;20203;-83
2022/06/16 07:51:59;;;;;;;5.53;4.45;;;;;;;27.17;72.97;99440.53;4881952;29;20217;-83
2022/06/16 07:54:26;;;;;;;6.85;4.72;;;;;;;27.32;71.76;99439.97;4876358;29;20293;-82
2022/06/16 07:57:13;;;;;;;5.32;4.68;;;;;;;27.49;71.45;99444.53;4899182;29;20665;-85
2022/06/16 07:59:50;;;;;;;4.57;4.10;;;;;;;27.69;73.43;99449.25;4889187;29;20301;-82
2022/06/16 08:02:17;;;;;;;5.05;4.25;;;;;;;27.84;70.76;99442.31;4878509;29;20539;-84
2022/06/16 08:04:45;;;;;;;4.88;4.47;;;;;;;27.66;71.45;99435.38;4889613;29;20183;-84
2022/06/16 08:07:12;;;;;;;5.15;4.28;;;;;;;28.01;66.07;99440.19;4867381;29;20723;-83
2022/06/16 08:09:39;;;;;;;4.90;4.40;;;;;;;28.17;66.22;99440.41;4875123;29;20199;-83
2022/06/16 08:12:10;;;;;;;5.03;4.53;;;;;;;28.49;64.95;99441.47;4887119;29;20215;-83
2022/06/16 08:14:41;;;;;;;5.65;5.13;;;;;;;28.79;62.27;99445.66;4886856;29;20736;-83
2022/06/16 08:17:13;;;;;;;5.47;4.57;;;;;;;28.95;61.71;99436.69;4891174;29;20195;-83
2022/06/16 08:19:40;;;;;;;4.88;4.35;;;;;;;28.94;63.01;99435.09;4890128;29;20183;-84
2022/06/16 08:22:07;;;;;;;4.72;4.20;;;;;;;29.00;60.41;99428.19;4906222;29;20209;-83
2022/06/16 08:24:34;;;;;;;5.00;3.80;;;;;;;29.14;58.52;99432.19;4890866;29;20191;-85
2022/06/16 08:27:02;;;;;;;4.38;3.97;;;;;;;29.26;59.27;99445.16;4883636;29;20192;-84
2022/06/16 08:29:29;;;;;;;5.13;4.05;;;;;;;29.14;59.31;99442.41;4898354;29;20574;-84
2022/06/16 08:31:56;;;;;;;4.97;4.00;;;;;;;29.36;56.09;99443.91;4883448;29;20219;-82
2022/06/16 08:34:23;;;;;;;5.30;4.50;;;;;;;29.40;56.71;99442.03;4881331;29;20233;-83
2022/06/16 08:36:50;;;;;;;4.70;4.22;;;;;;;29.31;57.51;99433.91;4881689;29;20222;-83
2022/06/16 08:39:17;;;;;;;4.95;4.40;;;;;;;29.22;61.76;99435.97;4881452;29;20191;-83
2022/06/16 08:42:10;;;;;;;4.63;4.20;;;;;;;29.18;59.66;99433.09;4897432;29;20223;-84
2022/06/16 08:44:53;;;;;;;4.40;4.00;;;;;;;29.01;60.71;99418.78;4903099;29;20599;-83
2022/06/16 08:47:23;;;;;;;5.88;4.50;;;;;;;28.94;62.85;99422.09;4892134;29;20203;-84
2022/06/16 08:50:00;;;;;;;4.80;4.28;;;;;;;28.84;62.25;99428.88;4880659;29;20271;-82
2022/06/16 08:52:46;;;;;;;5.38;4.13;;;;;;;28.79;62.73;99429.09;4881377;29;20203;-84
2022/06/16 08:55:15;;;;;;;4.65;4.20;;;;;;;28.99;63.36;99423.81;4890631;29;20259;-82
2022/06/16 08:57:45;;;;;;;4.30;3.90;;;;;;;28.86;61.96;99417.53;4897294;29;20230;-83
2022/06/16 09:00:16;;;;;;;4.80;4.40;;;;;;;28.69;64.12;99418.53;4897023;29;20243;-82
2022/06/16 09:02:52;;;;;;;4.63;4.18;;;;;;;28.77;64.51;99427.88;4881990;29;20321;-83
2022/06/16 09:05:25;;;;;;;5.00;4.60;;;;;;;28.80;63.41;99427.97;4872725;29;20713;-82
2022/06/16 09:08:03;;;;;;;5.10;4.20;;;;;;;28.82;64.43;99422.13;4902930;29;20206;-83
2022/06/16 09:10:36;;;;;;;4.40;3.95;;;;;;;29.02;63.37;99417.63;4891425;29;20206;-84
2022/06/16 09:13:08;;;;;;;5.07;4.40;;;;;;;29.04;59.17;99418.06;4901862;29;20207;-83
2022/06/16 09:16:03;;;;;;;5.63;4.68;;;;;;;29.10;60.63;99420.25;4879573;29;20270;-82
2022/06/16 09:18:59;;;;;;;7.22;4.55;;;;;;;29.23;59.67;99413.56;4906089;29;20206;-83
2022/06/16 09:21:38;;;;;;;6.20;4.53;;;;;;;29.50;58.67;99420.28;4886996;29;20951;-83
2022/06/16 09:24:23;;;;;;;6.03;4.10;;;;;;;29.82;56.29;99425.91;4890671;29;20186;-83
2022/06/16 09:26:59;;;;;;;4.90;4.30;;;;;;;30.29;55.69;99428.78;4902745;29;20602;-83
2022/06/16 09:29:36;;;;;;;4.50;4.13;;;;;;;30.51;52.87;99422.72;4890624;29;20246;-83
2022/06/16 09:32:17;;;;;;;5.45;4.22;;;;;;;30.87;52.80;99410.53;4872856;29;20215;-83
2022/06/16 09:34:54;;;;;;;4.55;4.10;;;;;;;30.69;51.49;99417.59;4905452;29;20294;-83
2022/06/16 09:37:21;;;;;;;4.38;3.95;;;;;;;30.65;50.16;99417.53;4890383;29;20187;-83
2022/06/16 09:40:02;;;;;;;4.70;4.30;;;;;;;30.60;51.09;99413.06;4904945;29;20226;-84
2022/06/16 09:42:46;;;;;;;5.10;4.18;;;;;;;30.14;53.88;99403.56;4893447;29;20254;-83
2022/06/16 09:45:46;;;;;;;5.32;4.25;;;;;;;30.28;52.52;99416.97;4915311;29;20657;-83
2022/06/16 09:48:15;;;;;;;5.20;4.32;;;;;;;30.10;54.10;99408.19;4915409;29;20212;-83
2022/06/16 09:50:59;;;;;;;4.40;4.10;;;;;;;30.14;54.19;99406.31;4898972;29;20242;-85
2022/06/16 09:53:29;;;;;;;4.72;4.32;;;;;;;30.24;55.28;99401.41;4915786;29;20199;-83
2022/06/16 09:56:06;;;;;;;5.35;4.60;;;;;;;30.28;54.57;99391.28;4915358;29;20171;-82
2022/06/16 09:58:38;;;;;;;4.30;3.97;;;;;;;30.35;53.88;99392.25;4883384;29;20680;-83
2022/06/16 10:01:09;;;;;;;6.10;4.20;;;;;;;30.27;53.64;99370.34;4915446;29;20174;-85
2022/06/16 10:03:54;;;;;;;5.05;4.35;;;;;;;30.24;52.73;99358.03;4898790;29;20178;-83
2022/06/16 10:06:30;;;;;;;4.82;4.43;;;;;;;30.37;55.07;99365.09;4892340;29;20270;-82
2022/06/16 10:09:05;;;;;;;6.28;4.10;;;;;;;30.37;51.07;99362.31;4895897;29;20183;-83
2022/06/16 10:11:39;;;;;;;4.65;4.22;;;;;;;30.47;52.59;99363.78;4879009;29;20710;-83
2022/06/16 10:14:12;;;;;;;4.60;4.13;;;;;;;30.46;51.51;99362.97;4887137;29;20230;-83
2022/06/16 10:17:03;;;;;;;4.75;4.30;;;;;;;30.38;51.21;99365.84;4899072;29;20202;-83
2022/06/16 10:19:37;;;;;;;5.43;4.28;;;;;;;30.40;50.66;99352.50;4893835;29;20202;-83
2022/06/16 10:22:06;;;;;;;5.22;4.38;;;;;;;30.17;53.13;99357.84;4898541;29;20178;-83
2022/06/16 10:24:36;;;;;;;4.55;3.88;;;;;;;30.20;52.97;99362.66;4898165;29;20190;-82
2022/06/16 10:27:04;;;;;;;4.43;4.13;;;;;;;30.31;53.17;99363.75;4878264;29;20198;-83
2022/06/16 10:29:32;;;;;;;4.82;4.07;;;;;;;30.26;53.43;99361.25;4895812;29;20207;-82
2022/06/16 10:32:01;;;;;;;5.22;3.97;;;;;;;30.52;51.45;99361.50;4879662;29;20187;-84
2022/06/16 10:34:38;;;;;;;5.57;4.72;;;;;;;30.47;52.17;99367.31;4879757;29;20234;-84
2022/06/16 10:37:09;;;;;;;5.18;4.40;;;;;;;30.47;50.61;99366.53;4896080;29;20218;-83
2022/06/16 10:39:43;;;;;;;5.93;4.28;;;;;;;30.72;51.98;99356.84;4896301;29;20179;-84
2022/06/16 10:42:16;;;;;;;5.72;4.10;;;;;;;30.88;50.32;99356.81;4879540;29;20238;-84
2022/06/16 10:44:51;;;;;;;4.82;4.10;;;;;;;30.82;49.31;99356.31;4886424;29;20186;-86
2022/06/16 10:47:28;;;;;;;5.28;4.28;;;;;;;30.70;49.46;99353.66;4883299;29;20198;-85
2022/06/16 10:49:55;;;;;;;4.30;3.92;;;;;;;30.76;48.73;99360.50;4883352;29;20190;-84
2022/06/16 10:52:38;;;;;;;4.72;4.22;;;;;;;30.71;51.55;99365.50;4915506;29;20221;-83
2022/06/16 10:55:11;;;;;;;5.32;4.53;;;;;;;30.86;49.90;99362.72;4898644;29;20218;-83
2022/06/16 10:57:45;;;;;;;4.43;3.70;;;;;;;30.89;48.73;99366.75;4897502;29;20238;-86
2022/06/16 11:00:22;;;;;;;6.82;4.10;;;;;;;30.94;48.12;99364.47;4897417;29;20630;-84
2022/06/16 11:03:03;;;;;;;5.05;3.92;;;;;;;31.09;49.59;99364.81;4867509;29;20254;-83
2022/06/16 11:05:47;;;;;;;4.60;4.05;;;;;;;31.24;48.52;99380.56;4915075;29;20190;-85
2022/06/16 11:08:14;;;;;;;5.10;4.20;;;;;;;31.40;47.38;99368.25;4861243;29;20198;-85
2022/06/16 11:11:01;;;;;;;4.82;4.40;;;;;;;31.68;45.19;99372.81;4863790;29;20190;-84
2022/06/16 11:13:33;;;;;;;4.60;4.10;;;;;;;31.93;45.48;99368.53;4875516;29;20202;-84
2022/06/16 11:16:05;;;;;;;5.63;4.30;;;;;;;32.69;43.60;99364.72;4883148;29;20183;-83
2022/06/16 11:18:33;;;;;;;5.13;4.18;;;;;;;33.16;41.96;99364.25;4898733;29;20193;-83
2022/06/16 11:21:00;;;;;;;4.72;4.32;;;;;;;33.74;39.50;99363.75;4913506;29;20214;-84
2022/06/16 11:23:31;;;;;;;4.30;3.90;;;;;;;34.16;39.62;99363.38;4864371;29;20230;-84
2022/06/16 11:26:17;;;;;;;5.35;3.83;;;;;;;34.11;39.25;99357.41;4866840;29;20250;-84
2022/06/16 11:28:58;;;;;;;4.35;3.95;;;;;;;33.85;39.44;99350.78;4853092;29;20230;-84
2022/06/16 11:31:38;;;;;;;5.22;4.07;;;;;;;33.65;40.51;99335.47;4869855;29;20178;-84
2022/06/16 11:34:17;;;;;;;5.22;4.28;;;;;;;33.55;40.61;99344.47;4867438;29;20593;-84
2022/06/16 11:37:01;;;;;;;4.80;4.15;;;;;;;33.32;42.29;99341.03;4884223;29;20179;-83
2022/06/16 11:39:43;;;;;;;5.05;4.55;;;;;;;33.68;39.17;99348.63;4882847;29;20576;-84
2022/06/16 11:42:28;;;;;;;6.05;4.30;;;;;;;33.79;38.16;99332.84;4899099;29;20235;-84
2022/06/16 11:45:05;;;;;;;4.47;4.10;;;;;;;33.98;39.47;99326.28;4908029;29;20186;-84
2022/06/16 11:47:55;;;;;;;4.70;4.22;;;;;;;33.74;38.30;99324.88;4901665;29;20171;-84
2022/06/16 11:50:45;;;;;;;4.35;4.05;;;;;;;33.88;38.04;99330.56;4901538;29;20206;-84
2022/06/16 11:53:30;;;;;;;4.30;3.90;;;;;;;33.87;38.39;99320.66;4901287;29;20301;-84
2022/06/16 11:56:01;;;;;;;4.88;4.35;;;;;;;33.72;37.92;99318.09;4901121;29;20285;-84
2022/06/16 11:58:51;;;;;;;4.50;4.10;;;;;;;33.55;38.72;99305.59;4918553;29;20238;-84
2022/06/16 12:01:26;;;;;;;5.38;4.25;;;;;;;33.21;41.07;99298.47;4901127;29;20701;-84
2022/06/16 12:04:17;;;;;;;4.63;4.10;;;;;;;33.17;39.75;99298.44;4901749;29;20238;-84
2022/06/16 12:06:47;;;;;;;4.00;3.70;;;;;;;33.35;38.75;99295.84;4891930;29;20643;-84
2022/06/16 12:09:16;;;;;;;4.25;3.75;;;;;;;33.46;39.84;99294.78;4898852;29;20216;-84
2022/06/16 12:12:01;;;;;;;4.28;3.88;;;;;;;33.14;39.28;99288.84;4899415;29;20592;-83
2022/06/16 12:14:41;;;;;;;4.10;3.75;;;;;;;33.21;38.92;99284.59;4862307;29;20224;-84
2022/06/16 12:17:14;;;;;;;5.65;3.97;;;;;;;32.96;40.14;99275.91;4900394;29;20202;-84
2022/06/16 12:19:57;;;;;;;4.40;4.00;;;;;;;33.20;40.66;99281.00;4899223;29;20191;-84